Terminal Aerodrome Forecast
Issued by NWS

Home | Current Version | Previous Version | Text Only | Print | Product List | Glossary On
Versions: 1 2 3 4 5 6 7 8 9 10 11 12 13 14 15 16 17 18 19 20 21 22 23 24 25 26 27 28 29 30 31
000
FTUS41 KOKX 302033 AAA
TAFTEB
TAF AMD
KTEB 302033Z 3021/3118 17010G18KT P6SM VCSH SCT045
     FM310000 19010KT P6SM SCT250
     FM310600 20007KT P6SM BKN150
     FM310800 19007KT 4SM BR SCT010
     FM311000 20006KT 4SM BR BKN010
     FM311400 21008KT 6SM HZ SCT020 BKN060
     FM311600 21008KT 4SM SHRA SCT020 BKN040=

USA.gov is the U.S. government's official web portal to all federal, state and local government web resources and services.